Time;durP1;ratioP1;P1;durP2;ratioP2;P2;SDS_P1;SDS_P2;PMS_P1;PMS_P2;Temp;Humidity;BMP_temperature;BMP_pressure;BME280_temperature;BME280_humidity;BME280_pressure;Samples;Min_cycle;Max_cycle;Signal;HPM_P1;HPM_P2
2021/04/28 00:02:09;;;;;;;6.05;2.58;;;5.90;63.60;;;;;;5051757;28;20041;-81
2021/04/28 00:04:36;;;;;;;6.07;2.85;;;5.90;63.90;;;;;;5051131;28;20044;-80
2021/04/28 00:07:03;;;;;;;4.05;2.38;;;5.90;63.40;;;;;;5051832;28;20068;-81
2021/04/28 00:09:30;;;;;;;6.22;2.60;;;6.00;63.50;;;;;;5063657;28;20043;-74
2021/04/28 00:11:58;;;;;;;3.42;2.33;;;5.90;63.80;;;;;;5066247;28;20037;-81
2021/04/28 00:14:24;;;;;;;6.72;2.90;;;5.80;64.50;;;;;;5055154;28;20045;-80
2021/04/28 00:16:50;;;;;;;4.97;2.80;;;5.80;65.00;;;;;;5066263;28;20051;-81
2021/04/28 00:19:17;;;;;;;5.47;2.28;;;5.70;65.20;;;;;;5069823;28;20041;-82
2021/04/28 00:21:43;;;;;;;4.45;2.97;;;5.70;66.00;;;;;;5058133;28;20033;-81
2021/04/28 00:24:12;;;;;;;6.88;3.55;;;5.50;66.00;;;;;;5060284;28;20036;-81
2021/04/28 00:26:38;;;;;;;7.07;2.33;;;5.40;67.20;;;;;;5069647;28;20470;-83
2021/04/28 00:29:05;;;;;;;4.05;2.35;;;5.50;66.80;;;;;;5061508;28;20056;-81
2021/04/28 00:31:32;;;;;;;5.88;3.30;;;5.40;66.80;;;;;;5054960;28;20057;-75
2021/04/28 00:33:59;;;;;;;6.55;2.90;;;5.40;67.40;;;;;;5067539;28;20044;-81
2021/04/28 00:36:25;;;;;;;10.65;3.13;;;5.30;67.50;;;;;;5055795;28;20041;-81
2021/04/28 00:38:52;;;;;;;10.85;3.30;;;5.30;67.80;;;;;;5067081;28;20041;-76
2021/04/28 00:41:18;;;;;;;11.30;3.28;;;5.20;68.10;;;;;;5055548;28;20040;-81
2021/04/28 00:43:45;;;;;;;10.57;3.17;;;5.10;69.00;;;;;;5054750;28;20037;-81
2021/04/28 00:46:12;;;;;;;12.63;3.58;;;5.10;69.50;;;;;;5069952;28;20037;-81
2021/04/28 00:48:39;;;;;;;11.40;3.38;;;5.10;70.00;;;;;;5056452;28;20033;-81
2021/04/28 00:51:06;;;;;;;8.85;3.33;;;5.10;70.10;;;;;;5062109;28;20041;-81
2021/04/28 00:53:33;;;;;;;6.97;3.08;;;5.10;70.70;;;;;;5054509;28;20049;-76
2021/04/28 00:56:00;;;;;;;6.00;2.83;;;5.00;70.70;;;;;;5058452;28;20409;-81
2021/04/28 00:58:27;;;;;;;7.65;2.65;;;5.00;71.20;;;;;;5068839;28;20032;-81
2021/04/28 01:00:56;;;;;;;7.03;3.78;;;5.00;72.00;;;;;;5054457;28;20037;-82
2021/04/28 01:03:26;;;;;;;8.70;3.30;;;4.90;72.30;;;;;;5053829;28;20045;-81
2021/04/28 01:05:56;;;;;;;4.78;2.88;;;5.00;72.60;;;;;;5073211;28;20389;-80
2021/04/28 01:08:22;;;;;;;5.00;3.13;;;5.00;73.00;;;;;;5054956;28;20048;-80
2021/04/28 01:10:50;;;;;;;7.90;3.58;;;5.00;73.20;;;;;;5061669;28;20051;-82
2021/04/28 01:13:18;;;;;;;6.78;3.30;;;5.00;73.50;;;;;;5069755;28;20045;-82
2021/04/28 01:15:45;;;;;;;6.03;3.50;;;4.90;74.60;;;;;;5055751;28;20037;-82
2021/04/28 01:18:17;;;;;;;6.47;3.67;;;4.90;75.40;;;;;;5053432;28;20379;-82
2021/04/28 01:20:44;;;;;;;4.72;3.00;;;4.90;74.80;;;;;;5053843;28;20040;-81
2021/04/28 01:23:13;;;;;;;4.93;3.00;;;5.00;75.30;;;;;;5054431;28;20383;-82
2021/04/28 01:25:42;;;;;;;4.53;2.70;;;4.90;75.30;;;;;;5051888;28;20041;-78
2021/04/28 01:28:19;;;;;;;6.03;2.80;;;4.90;75.40;;;;;;5053343;28;20045;-81
2021/04/28 01:31:05;;;;;;;5.00;2.97;;;4.70;76.10;;;;;;5053446;28;20133;-81
2021/04/28 01:33:34;;;;;;;6.25;3.53;;;4.60;77.10;;;;;;5056609;28;20048;-76
2021/04/28 01:36:01;;;;;;;5.10;2.53;;;4.50;79.10;;;;;;5054542;28;20045;-82
2021/04/28 01:38:32;;;;;;;6.65;3.50;;;4.50;80.10;;;;;;5069302;28;20052;-82
2021/04/28 01:41:00;;;;;;;5.90;3.22;;;4.40;81.00;;;;;;5067835;28;20037;-81
2021/04/28 01:43:29;;;;;;;5.28;3.72;;;4.30;82.40;;;;;;5068706;28;20033;-82
2021/04/28 01:45:56;;;;;;;5.68;3.50;;;4.20;83.50;;;;;;5053770;28;20063;-82
2021/04/28 01:48:23;;;;;;;7.50;3.67;;;4.10;84.60;;;;;;5054084;28;20033;-82
2021/04/28 01:50:50;;;;;;;6.03;3.90;;;4.10;86.20;;;;;;5067966;28;20057;-81
2021/04/28 01:53:21;;;;;;;6.78;3.33;;;4.10;86.80;;;;;;5060065;28;20125;-79
2021/04/28 01:55:53;;;;;;;8.00;3.45;;;4.00;86.70;;;;;;5053743;28;20375;-80
2021/04/28 01:58:53;;;;;;;7.63;3.85;;;4.00;88.60;;;;;;5052455;28;20123;-80
2021/04/28 02:01:54;;;;;;;6.38;3.13;;;3.90;90.10;;;;;;5051526;28;20049;-78
2021/04/28 02:04:22;;;;;;;8.73;3.72;;;4.00;90.70;;;;;;5069086;28;20045;-77
2021/04/28 02:06:49;;;;;;;7.28;4.00;;;4.00;91.20;;;;;;5068636;28;20379;-81
2021/04/28 02:09:16;;;;;;;7.32;3.20;;;4.00;91.40;;;;;;5053557;28;20040;-81
2021/04/28 02:11:43;;;;;;;5.38;3.40;;;4.00;91.70;;;;;;5061383;28;20049;-80
2021/04/28 02:14:15;;;;;;;5.45;3.70;;;4.00;92.40;;;;;;5064586;28;20045;-81
2021/04/28 02:16:55;;;;;;;6.57;3.75;;;3.90;92.60;;;;;;5053202;28;20041;-81
2021/04/28 02:19:23;;;;;;;9.10;3.85;;;3.80;92.90;;;;;;5071798;28;20056;-80
2021/04/28 02:21:53;;;;;;;4.88;3.00;;;3.80;93.50;;;;;;5056759;28;20041;-80
2021/04/28 02:24:35;;;;;;;4.25;3.10;;;3.90;93.80;;;;;;5054779;28;20045;-80
2021/04/28 02:27:03;;;;;;;6.53;3.20;;;4.00;94.00;;;;;;5063897;28;20029;-80
2021/04/28 02:29:33;;;;;;;6.07;3.90;;;3.90;93.60;;;;;;5074803;28;20041;-76
2021/04/28 02:32:00;;;;;;;7.43;3.95;;;3.90;94.10;;;;;;5056626;28;20056;-81
2021/04/28 02:34:37;;;;;;;7.50;3.90;;;3.80;94.50;;;;;;5052253;28;20048;-81
2021/04/28 02:37:22;;;;;;;6.13;3.05;;;3.70;95.00;;;;;;5065442;28;20047;-81
2021/04/28 02:40:24;;;;;;;8.38;4.03;;;3.50;96.10;;;;;;5000399;28;20518;-79
2021/04/28 02:42:52;;;;;;;7.72;3.72;;;3.60;96.80;;;;;;5042873;28;20288;-77
2021/04/28 02:45:21;;;;;;;6.75;3.35;;;3.60;97.10;;;;;;5072521;28;20033;-81
2021/04/28 02:47:54;;;;;;;6.45;3.95;;;3.60;97.20;;;;;;5070482;28;20679;-80
2021/04/28 02:50:25;;;;;;;5.70;3.72;;;3.50;97.30;;;;;;5067275;28;20466;-81
2021/04/28 02:53:07;;;;;;;5.50;2.60;;;3.50;97.60;;;;;;5068014;28;20049;-80
2021/04/28 02:55:35;;;;;;;8.93;3.80;;;3.40;97.80;;;;;;5068229;28;20036;-77
2021/04/28 02:58:02;;;;;;;14.55;4.53;;;3.30;98.00;;;;;;5058810;28;20049;-80
2021/04/28 03:00:32;;;;;;;9.13;4.15;;;3.30;98.50;;;;;;5058821;28;20044;-74
2021/04/28 03:02:58;;;;;;;7.15;4.07;;;3.20;98.60;;;;;;5052464;28;20041;-80
2021/04/28 03:05:28;;;;;;;9.00;3.88;;;3.20;99.10;;;;;;5051308;28;20115;-81
2021/04/28 03:08:01;;;;;;;7.40;3.40;;;3.10;99.50;;;;;;5054372;28;20049;-80
2021/04/28 03:10:28;;;;;;;7.53;3.80;;;3.00;99.90;;;;;;5058296;28;20037;-81
2021/04/28 03:12:54;;;;;;;8.85;3.97;;;3.00;99.90;;;;;;5063000;28;20478;-82
2021/04/28 03:15:21;;;;;;;6.30;4.22;;;3.00;99.90;;;;;;5052093;28;20049;-81
2021/04/28 03:17:50;;;;;;;6.38;3.90;;;3.00;99.90;;;;;;5066514;28;20041;-81
2021/04/28 03:20:26;;;;;;;6.82;4.22;;;3.00;99.90;;;;;;5051497;28;20516;-81
2021/04/28 03:22:53;;;;;;;7.65;4.55;;;3.00;99.90;;;;;;5050738;28;20183;-80
2021/04/28 03:25:20;;;;;;;5.72;3.38;;;3.00;99.90;;;;;;5052192;28;20049;-81
2021/04/28 03:27:50;;;;;;;7.57;4.03;;;3.00;99.90;;;;;;5050511;28;20131;-78
2021/04/28 03:30:17;;;;;;;6.93;4.53;;;3.00;99.90;;;;;;5050348;28;20096;-81
2021/04/28 03:32:45;;;;;;;6.43;4.57;;;3.00;99.90;;;;;;5050619;28;20063;-81
2021/04/28 03:35:38;;;;;;;7.18;4.15;;;3.00;99.90;;;;;;5035292;28;20045;-81
2021/04/28 03:38:31;;;;;;;5.55;3.70;;;2.90;99.90;;;;;;5050141;28;20048;-81
2021/04/28 03:40:59;;;;;;;8.52;4.38;;;2.80;99.90;;;;;;5063054;28;20028;-81
2021/04/28 03:43:25;;;;;;;9.27;4.40;;;2.70;99.90;;;;;;5057965;28;20046;-81
2021/04/28 03:45:55;;;;;;;9.13;4.10;;;2.70;99.90;;;;;;5060632;28;20518;-81
2021/04/28 03:48:39;;;;;;;7.78;4.35;;;2.60;99.90;;;;;;5051175;28;20034;-81
2021/04/28 03:51:05;;;;;;;9.23;4.38;;;2.50;99.90;;;;;;5064963;28;20052;-81
2021/04/28 03:53:37;;;;;;;7.93;4.45;;;2.50;99.90;;;;;;5050282;28;20061;-80
2021/04/28 03:56:03;;;;;;;7.47;3.80;;;2.50;99.90;;;;;;5066912;28;20044;-79
2021/04/28 03:58:31;;;;;;;7.07;4.85;;;2.50;99.90;;;;;;5058896;28;20491;-75
2021/04/28 04:01:04;;;;;;;10.13;4.80;;;2.50;99.90;;;;;;5065878;28;20044;-81
2021/04/28 04:03:34;;;;;;;6.63;3.87;;;2.40;99.90;;;;;;5050598;28;20052;-78
2021/04/28 04:06:19;;;;;;;10.00;3.97;;;2.30;99.90;;;;;;5051872;28;20037;-81
2021/04/28 04:09:07;;;;;;;8.63;4.90;;;2.30;99.90;;;;;;5067040;28;20037;-81
2021/04/28 04:11:35;;;;;;;6.28;4.13;;;2.40;99.90;;;;;;5064868;28;20542;-80
2021/04/28 04:14:03;;;;;;;6.25;4.22;;;2.50;99.90;;;;;;5051287;28;20037;-76
2021/04/28 04:16:29;;;;;;;7.55;4.30;;;2.50;99.90;;;;;;5051536;28;20378;-81
2021/04/28 04:18:55;;;;;;;11.15;4.85;;;2.60;99.90;;;;;;5051324;28;20037;-80
2021/04/28 04:21:22;;;;;;;6.05;4.35;;;2.60;99.90;;;;;;5065548;28;20068;-82
2021/04/28 04:24:07;;;;;;;7.40;4.35;;;2.50;99.90;;;;;;5060795;28;20033;-83
2021/04/28 04:26:44;;;;;;;8.20;4.80;;;2.50;99.90;;;;;;5059042;28;20378;-81
2021/04/28 04:29:43;;;;;;;9.27;4.53;;;2.60;99.90;;;;;;5065822;28;20041;-82
2021/04/28 04:32:28;;;;;;;6.45;4.35;;;2.60;99.90;;;;;;5051655;28;20395;-82
2021/04/28 04:35:15;;;;;;;5.57;4.30;;;2.60;99.90;;;;;;5055302;28;20375;-81
2021/04/28 04:38:01;;;;;;;8.02;4.90;;;2.60;99.90;;;;;;5050232;28;20393;-82
2021/04/28 04:40:51;;;;;;;9.25;5.32;;;2.60;99.90;;;;;;5055038;28;20036;-81
2021/04/28 04:43:30;;;;;;;12.85;5.57;;;2.80;99.90;;;;;;5067447;28;20052;-81
2021/04/28 04:46:09;;;;;;;6.97;4.70;;;2.90;99.90;;;;;;5051536;28;20049;-81
2021/04/28 04:48:35;;;;;;;8.23;5.10;;;3.00;99.90;;;;;;5060480;28;20033;-75
2021/04/28 04:51:02;;;;;;;7.72;4.75;;;3.10;99.90;;;;;;5055239;28;20037;-81
2021/04/28 04:53:28;;;;;;;11.02;5.40;;;3.40;99.90;;;;;;5056025;28;20037;-83
2021/04/28 04:55:54;;;;;;;7.55;4.10;;;4.10;99.90;;;;;;5053880;28;20210;-82
2021/04/28 04:58:20;;;;;;;6.40;4.32;;;5.30;96.90;;;;;;5059016;28;20057;-82
2021/04/28 05:00:47;;;;;;;8.32;4.60;;;6.10;91.60;;;;;;5054865;28;20044;-83
2021/04/28 05:03:13;;;;;;;8.60;4.15;;;6.60;84.10;;;;;;5058855;28;20040;-83
2021/04/28 05:05:39;;;;;;;6.40;3.80;;;6.80;81.10;;;;;;5063832;28;20056;-83
2021/04/28 05:08:06;;;;;;;7.47;4.47;;;7.10;77.70;;;;;;5062098;28;20037;-80
2021/04/28 05:10:32;;;;;;;8.80;4.43;;;7.20;76.50;;;;;;5055479;28;20036;-83
2021/04/28 05:12:58;;;;;;;6.15;4.68;;;7.70;74.20;;;;;;5070760;28;20052;-84
2021/04/28 05:15:25;;;;;;;8.43;4.13;;;8.00;71.70;;;;;;5054961;28;20045;-83
2021/04/28 05:17:56;;;;;;;6.78;4.45;;;8.10;70.80;;;;;;5054394;28;20033;-83
2021/04/28 05:20:23;;;;;;;11.27;5.13;;;8.90;69.40;;;;;;5054717;28;20493;-83
2021/04/28 05:22:49;;;;;;;7.45;4.00;;;9.70;65.20;;;;;;5062670;28;20382;-83
2021/04/28 05:25:38;;;;;;;11.00;5.05;;;10.20;62.90;;;;;;5047832;28;20037;-83
2021/04/28 05:28:05;;;;;;;8.00;4.38;;;10.90;59.80;;;;;;5054547;28;20489;-83
2021/04/28 05:30:31;;;;;;;8.38;4.40;;;10.80;59.30;;;;;;5060278;28;20037;-83
2021/04/28 05:32:58;;;;;;;7.75;5.10;;;10.90;58.70;;;;;;5060637;28;20053;-83
2021/04/28 05:35:24;;;;;;;11.88;4.85;;;10.70;58.70;;;;;;5054362;28;20025;-81
2021/04/28 05:37:51;;;;;;;9.55;4.90;;;10.30;59.40;;;;;;5054039;28;20043;-81
2021/04/28 05:40:19;;;;;;;10.75;5.55;;;9.90;60.50;;;;;;5053915;28;20045;-82
2021/04/28 05:42:46;;;;;;;10.70;5.38;;;9.70;61.40;;;;;;5053621;28;20047;-82
2021/04/28 05:45:14;;;;;;;9.05;4.85;;;9.80;61.30;;;;;;5068765;28;20033;-80
2021/04/28 05:47:41;;;;;;;9.73;5.28;;;9.90;60.90;;;;;;5066887;28;20032;-80
2021/04/28 05:50:10;;;;;;;8.48;5.35;;;10.20;60.50;;;;;;5054092;28;20036;-79
2021/04/28 05:52:36;;;;;;;11.20;5.07;;;10.50;59.40;;;;;;5055981;28;20367;-75
2021/04/28 05:55:04;;;;;;;9.30;4.55;;;10.40;59.10;;;;;;5071376;28;20055;-80
2021/04/28 05:57:34;;;;;;;7.53;4.40;;;10.70;58.80;;;;;;5054056;28;20474;-82
2021/04/28 06:00:04;;;;;;;10.98;4.65;;;10.90;58.10;;;;;;5068499;28;20048;-82
2021/04/28 06:02:39;;;;;;;9.48;5.00;;;11.30;57.30;;;;;;5053836;28;20063;-81
2021/04/28 06:05:06;;;;;;;7.80;5.40;;;11.00;57.20;;;;;;5053876;28;20056;-82
2021/04/28 06:07:32;;;;;;;6.85;4.40;;;11.00;57.60;;;;;;5053303;28;20052;-82
2021/04/28 06:09:59;;;;;;;8.68;5.05;;;11.00;57.20;;;;;;5052949;28;20029;-82
2021/04/28 06:12:25;;;;;;;7.97;4.88;;;11.00;57.50;;;;;;5053655;28;20385;-81
2021/04/28 06:14:51;;;;;;;7.80;4.50;;;11.10;56.90;;;;;;5055689;28;20041;-82
2021/04/28 06:17:18;;;;;;;10.20;4.70;;;11.90;55.40;;;;;;5058702;28;20036;-80
2021/04/28 06:19:44;;;;;;;8.55;5.10;;;12.00;54.70;;;;;;5056432;28;20355;-81
2021/04/28 06:22:11;;;;;;;9.30;5.13;;;12.00;55.00;;;;;;5065523;28;20044;-81
2021/04/28 06:24:37;;;;;;;8.65;5.00;;;12.40;54.30;;;;;;5053455;28;20036;-81
2021/04/28 06:27:04;;;;;;;7.40;5.10;;;12.30;54.10;;;;;;5068477;28;20037;-81
2021/04/28 06:29:30;;;;;;;9.15;4.88;;;12.50;53.90;;;;;;5054301;28;20025;-81
2021/04/28 06:31:59;;;;;;;7.45;5.07;;;12.80;53.50;;;;;;5054400;28;20060;-81
2021/04/28 06:34:26;;;;;;;10.93;5.25;;;12.60;53.20;;;;;;5053972;28;20037;-81
2021/04/28 06:36:52;;;;;;;10.98;6.22;;;12.60;53.60;;;;;;5053827;28;20029;-81
2021/04/28 06:39:18;;;;;;;7.57;4.53;;;12.90;54.30;;;;;;5063009;28;20474;-81
2021/04/28 06:41:45;;;;;;;9.27;5.55;;;14.30;50.50;;;;;;5052764;28;20051;-81
2021/04/28 06:44:11;;;;;;;6.65;4.70;;;15.70;49.60;;;;;;5064332;28;20052;-81
2021/04/28 06:46:37;;;;;;;6.60;4.90;;;16.80;46.30;;;;;;5060726;28;20039;-81
2021/04/28 06:49:04;;;;;;;7.68;5.45;;;17.00;45.60;;;;;;5069451;28;20045;-82
2021/04/28 06:51:30;;;;;;;8.40;4.90;;;16.00;46.70;;;;;;5053577;28;20044;-82
2021/04/28 06:54:00;;;;;;;7.78;5.03;;;16.00;46.80;;;;;;5069280;28;20052;-81
2021/04/28 06:56:31;;;;;;;9.90;5.32;;;15.90;46.50;;;;;;5053105;28;20036;-82
2021/04/28 06:58:58;;;;;;;8.57;5.47;;;15.30;47.10;;;;;;5066410;28;20036;-82
2021/04/28 07:01:24;;;;;;;6.60;4.63;;;15.30;47.40;;;;;;5052830;28;20025;-82
2021/04/28 07:03:50;;;;;;;7.43;4.97;;;16.00;45.80;;;;;;5052199;28;20041;-82
2021/04/28 07:06:17;;;;;;;10.07;5.53;;;17.10;45.00;;;;;;5052532;28;20029;-82
2021/04/28 07:08:43;;;;;;;6.90;5.07;;;17.10;44.80;;;;;;5052230;28;20040;-82
2021/04/28 07:11:09;;;;;;;8.93;5.28;;;18.30;43.30;;;;;;5052985;28;20375;-81
2021/04/28 07:13:36;;;;;;;10.73;5.30;;;17.40;43.60;;;;;;5059917;28;20045;-80
2021/04/28 07:16:02;;;;;;;6.50;5.55;;;17.70;44.00;;;;;;5054851;28;20028;-81
2021/04/28 07:18:29;;;;;;;8.07;5.05;;;18.60;42.90;;;;;;5062323;28;20032;-81
2021/04/28 07:20:56;;;;;;;13.32;5.75;;;18.10;42.80;;;;;;5052230;28;20029;-81
2021/04/28 07:23:22;;;;;;;9.05;5.55;;;16.70;44.00;;;;;;5052323;28;20045;-81
2021/04/28 07:25:49;;;;;;;8.23;5.30;;;16.90;44.30;;;;;;5063925;28;20025;-81
2021/04/28 07:28:15;;;;;;;7.60;5.70;;;17.60;43.10;;;;;;5060740;28;20056;-82
2021/04/28 07:30:41;;;;;;;8.52;5.47;;;16.60;44.20;;;;;;5065622;28;20052;-81
2021/04/28 07:33:08;;;;;;;7.28;5.03;;;15.40;46.00;;;;;;5051333;28;20052;-81
2021/04/28 07:35:34;;;;;;;10.48;5.68;;;15.60;46.20;;;;;;5070032;28;20044;-81
2021/04/28 07:38:01;;;;;;;12.52;5.50;;;16.30;45.30;;;;;;5060070;28;20379;-81
2021/04/28 07:40:27;;;;;;;7.95;5.72;;;17.90;43.40;;;;;;5065897;28;20470;-81
2021/04/28 07:42:54;;;;;;;12.00;7.07;;;18.00;42.70;;;;;;5058961;28;20481;-82
2021/04/28 07:45:20;;;;;;;10.25;6.72;;;18.10;41.60;;;;;;5064873;28;20025;-81
2021/04/28 07:47:46;;;;;;;7.57;6.75;;;18.80;42.00;;;;;;5051694;28;20378;-81
2021/04/28 07:50:15;;;;;;;14.90;7.32;;;17.70;43.30;;;;;;5066734;28;20501;-82
2021/04/28 07:52:42;;;;;;;11.57;7.22;;;17.30;43.50;;;;;;5051502;28;20037;-82
2021/04/28 07:55:09;;;;;;;11.52;7.85;;;17.40;43.40;;;;;;5051651;28;20029;-82
2021/04/28 07:57:36;;;;;;;11.57;8.88;;;18.20;44.20;;;;;;5051758;28;20029;-82
2021/04/28 08:00:07;;;;;;;9.00;7.53;;;19.60;41.60;;;;;;5055941;28;20040;-82
2021/04/28 08:02:38;;;;;;;9.07;8.07;;;20.00;40.40;;;;;;5060350;28;20043;-82
2021/04/28 08:05:05;;;;;;;13.77;8.55;;;21.00;39.40;;;;;;5054035;28;20033;-80
2021/04/28 08:07:32;;;;;;;13.32;7.75;;;21.70;39.50;;;;;;5051773;28;20036;-80
2021/04/28 08:09:58;;;;;;;12.93;8.13;;;22.30;38.20;;;;;;5050370;28;20092;-83
2021/04/28 08:12:24;;;;;;;8.85;7.95;;;21.60;38.60;;;;;;5052003;28;20485;-82
2021/04/28 08:14:51;;;;;;;14.95;8.55;;;20.20;39.00;;;;;;5051090;28;20049;-81
2021/04/28 08:17:17;;;;;;;12.18;8.77;;;20.10;39.20;;;;;;5051184;28;20033;-82
2021/04/28 08:19:43;;;;;;;12.45;9.05;;;17.90;42.30;;;;;;5061217;28;20033;-81
2021/04/28 08:22:10;;;;;;;11.48;8.02;;;17.00;43.40;;;;;;5051614;28;20055;-81
2021/04/28 08:24:36;;;;;;;12.63;9.02;;;17.10;43.20;;;;;;5050133;28;20056;-80
2021/04/28 08:27:02;;;;;;;14.68;9.02;;;18.30;43.10;;;;;;5051860;28;20044;-82
2021/04/28 08:29:29;;;;;;;11.20;8.50;;;20.40;40.00;;;;;;5053291;28;20029;-83
2021/04/28 08:31:55;;;;;;;14.07;9.57;;;20.30;39.00;;;;;;5051525;28;20045;-82
2021/04/28 08:34:21;;;;;;;13.85;9.20;;;19.70;40.20;;;;;;5054233;28;20401;-81
2021/04/28 08:36:48;;;;;;;15.75;9.25;;;19.20;40.20;;;;;;5055303;28;20029;-82
2021/04/28 08:39:14;;;;;;;12.55;9.60;;;19.20;41.00;;;;;;5055880;28;20032;-82
2021/04/28 08:41:41;;;;;;;15.73;9.55;;;19.90;40.10;;;;;;5055819;28;20378;-81
2021/04/28 08:44:08;;;;;;;11.85;8.30;;;20.00;40.80;;;;;;5068374;28;20039;-81
2021/04/28 08:46:35;;;;;;;13.95;10.05;;;20.80;39.70;;;;;;5071095;28;20025;-81
2021/04/28 08:49:03;;;;;;;12.68;10.63;;;21.40;38.90;;;;;;5055221;28;20036;-82
2021/04/28 08:51:30;;;;;;;12.50;9.70;;;19.50;40.60;;;;;;5055028;28;20040;-82
2021/04/28 08:53:56;;;;;;;13.50;10.13;;;19.70;40.00;;;;;;5054467;28;20044;-81
2021/04/28 08:56:22;;;;;;;15.40;9.90;;;20.00;40.30;;;;;;5053852;28;20033;-81
2021/04/28 08:58:50;;;;;;;14.35;10.15;;;20.20;39.60;;;;;;5068301;28;20441;-81
2021/04/28 09:01:34;;;;;;;12.32;9.88;;;19.10;41.70;;;;;;5062965;28;20103;-82
2021/04/28 09:04:09;;;;;;;18.23;10.50;;;19.80;41.10;;;;;;5073170;28;20067;-82
2021/04/28 09:06:37;;;;;;;13.88;9.93;;;20.50;40.20;;;;;;5055808;28;20029;-82
2021/04/28 09:09:14;;;;;;;13.55;9.82;;;20.10;40.70;;;;;;5058106;28;20032;-82
2021/04/28 09:11:42;;;;;;;13.60;9.70;;;20.20;40.60;;;;;;5069808;28;20036;-82
2021/04/28 09:14:11;;;;;;;15.38;11.07;;;20.00;40.50;;;;;;5054855;28;20044;-82
2021/04/28 09:16:39;;;;;;;15.65;10.45;;;20.60;40.40;;;;;;5054009;28;20055;-81
2021/04/28 09:19:28;;;;;;;13.10;10.77;;;20.30;40.30;;;;;;5053722;28;20041;-83
2021/04/28 09:22:19;;;;;;;15.68;11.07;;;20.40;40.30;;;;;;5060512;28;20044;-83
2021/04/28 09:25:05;;;;;;;14.15;11.05;;;21.50;40.20;;;;;;5076398;28;20068;-83
2021/04/28 09:27:50;;;;;;;17.77;11.70;;;20.90;39.70;;;;;;5070703;28;20043;-84
2021/04/28 09:30:39;;;;;;;14.03;10.70;;;21.90;38.80;;;;;;5068276;28;20478;-82
2021/04/28 09:33:05;;;;;;;14.90;11.45;;;22.60;38.50;;;;;;5054607;28;20053;-83
2021/04/28 09:35:32;;;;;;;17.67;11.15;;;21.70;38.90;;;;;;5055263;28;20406;-83
2021/04/28 09:38:00;;;;;;;15.90;11.93;;;22.50;38.70;;;;;;5054325;28;20100;-83
2021/04/28 09:40:46;;;;;;;14.10;10.95;;;23.00;37.30;;;;;;5057256;28;20466;-83
2021/04/28 09:43:13;;;;;;;14.90;11.23;;;21.70;37.80;;;;;;5070223;28;20401;-82
2021/04/28 09:45:48;;;;;;;18.08;12.55;;;21.60;39.40;;;;;;5053084;28;20462;-81
2021/04/28 09:48:22;;;;;;;13.23;11.85;;;20.50;39.70;;;;;;5062853;28;20370;-82
2021/04/28 09:50:49;;;;;;;14.32;11.90;;;21.70;38.60;;;;;;5063245;28;20032;-83
2021/04/28 09:53:26;;;;;;;18.33;12.65;;;22.10;37.40;;;;;;5066318;28;20040;-82
2021/04/28 09:55:53;;;;;;;16.17;11.82;;;21.50;38.10;;;;;;5060172;28;20108;-82
2021/04/28 09:58:46;;;;;;;15.77;10.88;;;21.60;39.10;;;;;;5067973;28;20021;-82
2021/04/28 10:01:28;;;;;;;15.50;11.60;;;22.40;38.60;;;;;;5052764;28;20481;-83
2021/04/28 10:03:54;;;;;;;13.45;11.13;;;22.50;37.20;;;;;;5058495;28;20043;-84
2021/04/28 10:06:49;;;;;;;14.13;11.13;;;22.70;37.70;;;;;;5069433;28;20029;-83
2021/04/28 10:09:35;;;;;;;15.38;11.05;;;20.90;38.70;;;;;;5066242;28;20035;-83
2021/04/28 10:12:04;;;;;;;14.02;11.50;;;19.90;40.20;;;;;;5058875;28;20032;-83
2021/04/28 10:14:33;;;;;;;17.60;12.85;;;19.40;40.50;;;;;;5057866;28;20045;-82
2021/04/28 10:17:03;;;;;;;15.55;11.77;;;18.80;40.50;;;;;;5057055;28;20394;-81
2021/04/28 10:19:31;;;;;;;21.02;11.93;;;18.70;41.70;;;;;;5073325;28;20028;-81
2021/04/28 10:22:17;;;;;;;18.73;12.98;;;19.30;41.10;;;;;;5053502;28;20033;-81
2021/04/28 10:24:49;;;;;;;17.10;11.90;;;19.40;40.60;;;;;;5053564;28;20469;-82
2021/04/28 10:27:17;;;;;;;19.83;13.77;;;19.00;40.50;;;;;;5053654;28;20024;-83
2021/04/28 10:29:45;;;;;;;16.40;12.52;;;18.70;41.80;;;;;;5070279;28;20028;-84
2021/04/28 10:32:16;;;;;;;18.77;12.35;;;18.20;42.00;;;;;;5055782;28;20045;-82
2021/04/28 10:34:54;;;;;;;18.88;11.88;;;18.30;42.80;;;;;;5053849;28;20053;-82
2021/04/28 10:37:23;;;;;;;16.92;12.02;;;18.50;42.70;;;;;;5063870;28;20029;-82
2021/04/28 10:39:50;;;;;;;15.75;10.80;;;19.00;41.90;;;;;;5056503;28;20029;-82
2021/04/28 10:42:43;;;;;;;17.55;11.43;;;19.30;41.40;;;;;;5053902;28;20062;-83
2021/04/28 10:45:22;;;;;;;16.75;12.18;;;19.70;39.50;;;;;;5059990;28;20414;-81
2021/04/28 10:47:54;;;;;;;18.58;11.88;;;20.00;39.00;;;;;;5066380;28;20510;-81
2021/04/28 10:50:40;;;;;;;19.30;11.85;;;19.70;40.40;;;;;;5052828;28;20375;-82
2021/04/28 10:53:28;;;;;;;15.50;11.70;;;19.60;39.80;;;;;;5065898;28;20370;-81
2021/04/28 10:56:15;;;;;;;17.02;11.43;;;19.50;40.30;;;;;;5053070;28;20029;-82
2021/04/28 10:58:48;;;;;;;13.45;10.20;;;19.60;40.70;;;;;;5052883;28;20036;-83
2021/04/28 11:01:18;;;;;;;16.48;10.77;;;19.80;38.80;;;;;;5053085;28;20052;-81
2021/04/28 11:03:53;;;;;;;17.92;11.98;;;19.90;38.80;;;;;;5052720;28;20393;-81
2021/04/28 11:06:23;;;;;;;16.67;11.13;;;20.10;39.20;;;;;;5051466;28;20048;-81
2021/04/28 11:08:49;;;;;;;18.13;11.65;;;19.90;39.50;;;;;;5052345;28;20044;-80
2021/04/28 11:11:34;;;;;;;16.45;11.90;;;20.30;38.90;;;;;;5052750;28;20390;-82
2021/04/28 11:14:09;;;;;;;18.23;11.52;;;20.30;38.60;;;;;;5052339;28;20252;-81
2021/04/28 11:16:46;;;;;;;16.75;11.15;;;20.60;39.00;;;;;;5067561;28;20041;-81
2021/04/28 11:19:39;;;;;;;14.02;10.32;;;20.20;39.90;;;;;;5053400;28;20029;-82
2021/04/28 11:22:28;;;;;;;16.05;11.50;;;20.40;39.50;;;;;;5053419;28;20036;-81
2021/04/28 11:25:15;;;;;;;20.85;11.93;;;20.00;38.30;;;;;;5052668;28;20033;-81
2021/04/28 11:27:55;;;;;;;17.15;10.13;;;19.80;38.90;;;;;;5052344;28;20581;-81
2021/04/28 11:30:27;;;;;;;14.63;10.32;;;19.80;38.50;;;;;;5052218;28;20513;-81
2021/04/28 11:33:08;;;;;;;15.18;12.02;;;20.20;36.60;;;;;;5052180;28;20060;-82
2021/04/28 11:35:38;;;;;;;15.57;9.77;;;20.00;37.00;;;;;;5052601;28;20037;-81
2021/04/28 11:38:12;;;;;;;13.43;9.27;;;19.80;36.80;;;;;;5055901;28;20056;-81
2021/04/28 11:41:03;;;;;;;12.63;8.60;;;20.20;37.10;;;;;;5069055;28;20489;-82
2021/04/28 11:43:31;;;;;;;12.70;8.00;;;20.80;34.20;;;;;;5064219;28;20032;-82
2021/04/28 11:46:09;;;;;;;14.32;9.15;;;21.20;35.30;;;;;;5056828;28;20045;-81
2021/04/28 11:48:37;;;;;;;14.80;9.23;;;21.30;34.90;;;;;;5069083;28;20025;-82
2021/04/28 11:51:09;;;;;;;11.25;9.27;;;20.90;33.20;;;;;;5053865;28;20033;-83
2021/04/28 11:53:49;;;;;;;11.43;8.27;;;20.60;33.70;;;;;;5070949;28;20371;-81
2021/04/28 11:56:33;;;;;;;14.20;9.63;;;20.50;34.60;;;;;;5094876;28;20037;-82
2021/04/28 11:59:00;;;;;;;11.90;7.93;;;20.60;34.70;;;;;;5077715;28;20033;-81
2021/04/28 12:01:31;;;;;;;10.18;8.75;;;20.80;34.60;;;;;;5075907;28;20017;-82
2021/04/28 12:04:07;;;;;;;11.85;8.45;;;20.60;35.30;;;;;;5058035;28;20045;-81
2021/04/28 12:06:46;;;;;;;13.25;9.38;;;21.10;35.40;;;;;;5054328;28;20041;-80
2021/04/28 12:09:35;;;;;;;12.00;8.27;;;21.00;35.10;;;;;;5071837;28;20036;-82
2021/04/28 12:12:23;;;;;;;12.68;8.98;;;20.70;35.80;;;;;;5059948;28;20339;-81
2021/04/28 12:14:51;;;;;;;12.65;8.27;;;21.10;35.50;;;;;;5056464;28;20678;-83
2021/04/28 12:17:25;;;;;;;14.18;9.43;;;21.40;34.70;;;;;;5056340;28;20025;-82
2021/04/28 12:19:56;;;;;;;13.57;9.25;;;21.00;34.20;;;;;;5056180;28;20057;-82
2021/04/28 12:22:24;;;;;;;11.00;7.80;;;20.60;34.50;;;;;;5056356;28;20033;-81
2021/04/28 12:24:55;;;;;;;12.55;9.05;;;20.50;34.60;;;;;;5056024;28;20033;-82
2021/04/28 12:27:30;;;;;;;11.70;8.23;;;20.30;34.60;;;;;;5055909;28;20044;-81
2021/04/28 12:30:12;;;;;;;11.32;8.60;;;20.50;34.50;;;;;;5055628;28;20037;-81
2021/04/28 12:32:40;;;;;;;10.65;7.72;;;20.50;34.50;;;;;;5065585;28;20044;-81
2021/04/28 12:35:19;;;;;;;11.10;8.25;;;20.90;34.70;;;;;;5056527;28;20045;-83
2021/04/28 12:38:16;;;;;;;9.13;6.90;;;20.70;34.40;;;;;;5072522;28;20493;-81
2021/04/28 12:41:05;;;;;;;9.93;6.78;;;21.10;35.10;;;;;;5048487;28;20056;-81
2021/04/28 12:43:35;;;;;;;9.63;6.50;;;21.60;34.30;;;;;;5072876;28;20037;-81
2021/04/28 12:46:14;;;;;;;8.23;6.95;;;21.50;34.30;;;;;;5065638;28;20033;-81
2021/04/28 12:48:55;;;;;;;11.60;6.90;;;22.20;34.20;;;;;;5068501;28;20029;-82
2021/04/28 12:51:23;;;;;;;10.80;8.15;;;21.90;33.80;;;;;;5055295;28;20040;-82
2021/04/28 12:53:49;;;;;;;10.27;7.07;;;21.50;33.70;;;;;;5055145;28;20037;-81
2021/04/28 12:56:17;;;;;;;9.73;6.63;;;21.80;33.60;;;;;;5055525;28;20055;-82
2021/04/28 12:58:47;;;;;;;10.98;7.80;;;22.10;34.50;;;;;;5054720;28;20033;-82
2021/04/28 13:01:23;;;;;;;10.18;7.10;;;22.10;33.20;;;;;;5055526;28;20060;-82
2021/04/28 13:03:50;;;;;;;12.05;7.25;;;21.70;35.00;;;;;;5055008;28;20370;-82
2021/04/28 13:06:24;;;;;;;9.75;7.13;;;22.00;33.70;;;;;;5054204;28;20036;-82
2021/04/28 13:08:54;;;;;;;8.57;5.22;;;21.50;34.50;;;;;;5064132;28;20028;-82